sensor_id;sensor_type;location;lat;lon;timestamp;pressure;altitude;pressure_sealevel;temperature;humidity
61292;BME280;47165;42.664;23.368;2022-11-10T00:01:25;95668.78;;;9.56;63.98
61292;BME280;47165;42.664;23.368;2022-11-10T00:03:50;95677.41;;;9.58;63.28
61292;BME280;47165;42.664;23.368;2022-11-10T00:06:16;95675.09;;;9.51;62.77
61292;BME280;47165;42.664;23.368;2022-11-10T00:08:41;95671.78;;;9.47;63.19
61292;BME280;47165;42.664;23.368;2022-11-10T00:11:07;95674.47;;;9.45;63.09
61292;BME280;47165;42.664;23.368;2022-11-10T00:13:35;95663.25;;;9.43;62.73
61292;BME280;47165;42.664;23.368;2022-11-10T00:16:20;95672.03;;;9.41;62.46
61292;BME280;47165;42.664;23.368;2022-11-10T00:19:24;95675.09;;;9.30;62.67
61292;BME280;47165;42.664;23.368;2022-11-10T00:21:50;95680.34;;;9.29;62.94
61292;BME280;47165;42.664;23.368;2022-11-10T00:24:15;95674.50;;;9.23;63.34
61292;BME280;47165;42.664;23.368;2022-11-10T00:26:41;95668.34;;;9.24;63.52
61292;BME280;47165;42.664;23.368;2022-11-10T00:29:06;95673.56;;;9.24;63.29
61292;BME280;47165;42.664;23.368;2022-11-10T00:31:32;95668.56;;;9.20;63.26
61292;BME280;47165;42.664;23.368;2022-11-10T00:33:57;95677.28;;;9.19;63.17
61292;BME280;47165;42.664;23.368;2022-11-10T00:36:23;95673.91;;;9.17;63.36
61292;BME280;47165;42.664;23.368;2022-11-10T00:38:50;95668.69;;;9.17;63.29
61292;BME280;47165;42.664;23.368;2022-11-10T00:41:15;95662.75;;;9.13;63.47
61292;BME280;47165;42.664;23.368;2022-11-10T00:43:41;95663.72;;;9.11;63.44
61292;BME280;47165;42.664;23.368;2022-11-10T00:46:06;95665.56;;;9.09;63.81
61292;BME280;47165;42.664;23.368;2022-11-10T00:48:31;95662.94;;;9.09;63.61
61292;BME280;47165;42.664;23.368;2022-11-10T00:50:57;95655.13;;;9.09;63.63
61292;BME280;47165;42.664;23.368;2022-11-10T00:53:22;95656.03;;;9.07;63.39
61292;BME280;47165;42.664;23.368;2022-11-10T00:55:48;95656.03;;;9.07;64.00
61292;BME280;47165;42.664;23.368;2022-11-10T00:58:13;95646.84;;;8.99;63.23
61292;BME280;47165;42.664;23.368;2022-11-10T01:00:39;95649.63;;;8.94;62.74
61292;BME280;47165;42.664;23.368;2022-11-10T01:03:05;95655.09;;;8.88;62.81
61292;BME280;47165;42.664;23.368;2022-11-10T01:05:34;95651.69;;;8.86;63.74
61292;BME280;47165;42.664;23.368;2022-11-10T01:08:00;95649.13;;;8.62;66.52
61292;BME280;47165;42.664;23.368;2022-11-10T01:10:26;95653.38;;;8.43;67.91
61292;BME280;47165;42.664;23.368;2022-11-10T01:12:51;95655.84;;;8.46;67.53
61292;BME280;47165;42.664;23.368;2022-11-10T01:15:17;95653.22;;;8.46;65.35
61292;BME280;47165;42.664;23.368;2022-11-10T01:17:42;95653.97;;;8.50;64.81
61292;BME280;47165;42.664;23.368;2022-11-10T01:20:08;95651.19;;;8.54;64.01
61292;BME280;47165;42.664;23.368;2022-11-10T01:22:34;95650.53;;;8.49;64.01
61292;BME280;47165;42.664;23.368;2022-11-10T01:24:59;95649.59;;;8.50;65.59
61292;BME280;47165;42.664;23.368;2022-11-10T01:27:25;95653.13;;;8.49;66.46
61292;BME280;47165;42.664;23.368;2022-11-10T01:29:50;95649.84;;;8.44;66.96
61292;BME280;47165;42.664;23.368;2022-11-10T01:32:16;95646.34;;;8.45;65.73
61292;BME280;47165;42.664;23.368;2022-11-10T01:38:02;95649.59;;;8.50;65.17
61292;BME280;47165;42.664;23.368;2022-11-10T01:40:28;95645.31;;;8.49;65.02
61292;BME280;47165;42.664;23.368;2022-11-10T01:42:56;95641.00;;;8.48;64.26
61292;BME280;47165;42.664;23.368;2022-11-10T01:47:52;95643.16;;;8.37;64.96
61292;BME280;47165;42.664;23.368;2022-11-10T01:50:21;95647.50;;;8.36;64.97
61292;BME280;47165;42.664;23.368;2022-11-10T01:52:49;95648.34;;;8.37;65.65
61292;BME280;47165;42.664;23.368;2022-11-10T01:55:16;95639.63;;;8.38;65.67
61292;BME280;47165;42.664;23.368;2022-11-10T01:57:42;95641.34;;;8.39;65.79
61292;BME280;47165;42.664;23.368;2022-11-10T02:00:09;95643.16;;;8.37;64.58
61292;BME280;47165;42.664;23.368;2022-11-10T02:03:02;95638.00;;;8.35;63.52
61292;BME280;47165;42.664;23.368;2022-11-10T02:05:32;95633.22;;;8.24;63.71
61292;BME280;47165;42.664;23.368;2022-11-10T02:07:58;95636.69;;;8.23;63.76
61292;BME280;47165;42.664;23.368;2022-11-10T02:10:24;95632.47;;;8.21;63.84
61292;BME280;47165;42.664;23.368;2022-11-10T02:12:49;95644.63;;;8.20;63.33
61292;BME280;47165;42.664;23.368;2022-11-10T02:15:16;95642.13;;;8.17;63.28
61292;BME280;47165;42.664;23.368;2022-11-10T02:17:45;95643.19;;;8.12;63.65
61292;BME280;47165;42.664;23.368;2022-11-10T02:20:13;95646.91;;;8.06;63.66
61292;BME280;47165;42.664;23.368;2022-11-10T02:22:39;95647.00;;;8.03;63.97
61292;BME280;47165;42.664;23.368;2022-11-10T02:25:05;95641.78;;;8.03;64.78
61292;BME280;47165;42.664;23.368;2022-11-10T02:27:31;95653.13;;;8.02;64.05
61292;BME280;47165;42.664;23.368;2022-11-10T02:29:57;95654.00;;;8.01;63.98
61292;BME280;47165;42.664;23.368;2022-11-10T02:32:22;95656.75;;;7.98;63.44
61292;BME280;47165;42.664;23.368;2022-11-10T02:34:48;95657.75;;;7.94;63.52
61292;BME280;47165;42.664;23.368;2022-11-10T02:37:13;95665.56;;;7.94;63.67
61292;BME280;47165;42.664;23.368;2022-11-10T02:39:39;95659.47;;;7.93;64.06
61292;BME280;47165;42.664;23.368;2022-11-10T02:42:04;95663.84;;;7.93;64.90
61292;BME280;47165;42.664;23.368;2022-11-10T02:44:38;95663.09;;;7.89;64.47
61292;BME280;47165;42.664;23.368;2022-11-10T02:47:04;95664.97;;;7.85;64.50
61292;BME280;47165;42.664;23.368;2022-11-10T02:49:30;95664.19;;;7.83;63.85
61292;BME280;47165;42.664;23.368;2022-11-10T02:51:55;95673.63;;;7.86;64.15
61292;BME280;47165;42.664;23.368;2022-11-10T02:54:21;95665.88;;;7.84;64.14
61292;BME280;47165;42.664;23.368;2022-11-10T02:56:46;95664.22;;;7.82;64.20
61292;BME280;47165;42.664;23.368;2022-11-10T02:59:12;95673.00;;;7.79;64.36
61292;BME280;47165;42.664;23.368;2022-11-10T03:01:37;95678.19;;;7.79;64.57
61292;BME280;47165;42.664;23.368;2022-11-10T03:04:03;95681.69;;;7.78;65.27
61292;BME280;47165;42.664;23.368;2022-11-10T03:06:28;95671.22;;;7.80;64.73
61292;BME280;47165;42.664;23.368;2022-11-10T03:08:54;95668.22;;;7.67;66.43
61292;BME280;47165;42.664;23.368;2022-11-10T03:11:19;95673.41;;;7.67;66.25
61292;BME280;47165;42.664;23.368;2022-11-10T03:13:45;95675.31;;;7.62;66.57
61292;BME280;47165;42.664;23.368;2022-11-10T03:16:10;95673.56;;;7.62;66.80
61292;BME280;47165;42.664;23.368;2022-11-10T03:18:35;95677.06;;;7.61;66.54
61292;BME280;47165;42.664;23.368;2022-11-10T03:21:01;95675.72;;;7.50;67.67
61292;BME280;47165;42.664;23.368;2022-11-10T03:23:26;95678.59;;;7.42;68.93
61292;BME280;47165;42.664;23.368;2022-11-10T03:25:52;95677.19;;;7.32;69.73
61292;BME280;47165;42.664;23.368;2022-11-10T03:28:17;95688.53;;;7.29;70.26
61292;BME280;47165;42.664;23.368;2022-11-10T03:30:43;95689.34;;;7.31;70.12
61292;BME280;47165;42.664;23.368;2022-11-10T03:33:08;95694.28;;;7.39;69.32
61292;BME280;47165;42.664;23.368;2022-11-10T03:35:34;95691.72;;;7.37;69.39
61292;BME280;47165;42.664;23.368;2022-11-10T03:37:59;95683.16;;;7.35;70.35
61292;BME280;47165;42.664;23.368;2022-11-10T03:40:25;95685.75;;;7.35;70.39
61292;BME280;47165;42.664;23.368;2022-11-10T03:42:50;95686.34;;;7.43;69.71
61292;BME280;47165;42.664;23.368;2022-11-10T03:45:16;95689.06;;;7.40;70.25
61292;BME280;47165;42.664;23.368;2022-11-10T03:47:47;95680.34;;;7.41;70.46
61292;BME280;47165;42.664;23.368;2022-11-10T03:50:13;95691.31;;;7.50;70.04
61292;BME280;47165;42.664;23.368;2022-11-10T03:52:39;95691.28;;;7.51;68.65
61292;BME280;47165;42.664;23.368;2022-11-10T03:55:06;95687.84;;;7.51;68.22
61292;BME280;47165;42.664;23.368;2022-11-10T03:57:32;95694.72;;;7.52;67.32
61292;BME280;47165;42.664;23.368;2022-11-10T03:59:57;95694.84;;;7.49;66.18
61292;BME280;47165;42.664;23.368;2022-11-10T04:02:22;95703.53;;;7.48;66.31
61292;BME280;47165;42.664;23.368;2022-11-10T04:04:48;95699.16;;;7.48;66.51
61292;BME280;47165;42.664;23.368;2022-11-10T04:07:32;95701.72;;;7.50;66.94
61292;BME280;47165;42.664;23.368;2022-11-10T04:10:16;95699.03;;;7.53;68.89
61292;BME280;47165;42.664;23.368;2022-11-10T04:12:41;95705.06;;;7.53;69.80
61292;BME280;47165;42.664;23.368;2022-11-10T04:15:25;95702.31;;;7.58;70.20
61292;BME280;47165;42.664;23.368;2022-11-10T04:18:06;95703.94;;;7.60;70.05
61292;BME280;47165;42.664;23.368;2022-11-10T04:21:08;95706.63;;;7.59;67.58
61292;BME280;47165;42.664;23.368;2022-11-10T04:23:34;95702.72;;;7.45;65.93
61292;BME280;47165;42.664;23.368;2022-11-10T04:28:47;95705.44;;;7.42;66.17
61292;BME280;47165;42.664;23.368;2022-11-10T04:31:14;95707.31;;;7.37;66.92
61292;BME280;47165;42.664;23.368;2022-11-10T04:33:42;95707.38;;;7.36;65.85
61292;BME280;47165;42.664;23.368;2022-11-10T04:36:10;95709.25;;;7.32;65.29
61292;BME280;47165;42.664;23.368;2022-11-10T04:38:36;95707.63;;;7.28;64.95
61292;BME280;47165;42.664;23.368;2022-11-10T04:41:02;95712.28;;;7.18;63.95
61292;BME280;47165;42.664;23.368;2022-11-10T04:43:28;95705.38;;;7.17;64.38
61292;BME280;47165;42.664;23.368;2022-11-10T04:45:54;95703.69;;;7.16;64.68
61292;BME280;47165;42.664;23.368;2022-11-10T04:48:20;95708.88;;;7.16;66.01
61292;BME280;47165;42.664;23.368;2022-11-10T04:50:45;95709.63;;;7.20;64.96
61292;BME280;47165;42.664;23.368;2022-11-10T04:53:11;95714.97;;;7.15;64.14
61292;BME280;47165;42.664;23.368;2022-11-10T04:55:42;95710.69;;;7.14;65.01
61292;BME280;47165;42.664;23.368;2022-11-10T04:58:07;95712.47;;;7.12;67.12
61292;BME280;47165;42.664;23.368;2022-11-10T05:00:34;95714.91;;;7.17;67.10
61292;BME280;47165;42.664;23.368;2022-11-10T05:03:00;95712.47;;;7.12;65.64
61292;BME280;47165;42.664;23.368;2022-11-10T05:05:27;95715.31;;;7.04;64.98
61292;BME280;47165;42.664;23.368;2022-11-10T05:07:52;95716.34;;;6.99;64.65
61292;BME280;47165;42.664;23.368;2022-11-10T05:10:18;95714.69;;;6.96;65.08
61292;BME280;47165;42.664;23.368;2022-11-10T05:12:43;95719.84;;;6.98;65.65
61292;BME280;47165;42.664;23.368;2022-11-10T05:15:09;95725.00;;;6.99;66.37
61292;BME280;47165;42.664;23.368;2022-11-10T05:17:35;95725.72;;;7.03;67.37
61292;BME280;47165;42.664;23.368;2022-11-10T05:20:01;95726.50;;;7.07;68.04
61292;BME280;47165;42.664;23.368;2022-11-10T05:22:26;95726.53;;;7.05;67.18
61292;BME280;47165;42.664;23.368;2022-11-10T05:24:52;95735.13;;;7.07;67.75
61292;BME280;47165;42.664;23.368;2022-11-10T05:27:17;95725.50;;;7.11;68.23
61292;BME280;47165;42.664;23.368;2022-11-10T05:29:43;95727.09;;;7.15;69.07
61292;BME280;47165;42.664;23.368;2022-11-10T05:32:08;95734.75;;;7.19;68.14
61292;BME280;47165;42.664;23.368;2022-11-10T05:37:55;95733.91;;;7.19;67.37
61292;BME280;47165;42.664;23.368;2022-11-10T05:40:20;95737.41;;;7.18;67.96
61292;BME280;47165;42.664;23.368;2022-11-10T05:42:48;95739.84;;;7.22;68.10
61292;BME280;47165;42.664;23.368;2022-11-10T05:45:17;95739.84;;;7.22;68.60
61292;BME280;47165;42.664;23.368;2022-11-10T05:47:43;95737.22;;;7.24;69.01
61292;BME280;47165;42.664;23.368;2022-11-10T05:50:09;95742.22;;;7.30;68.82
61292;BME280;47165;42.664;23.368;2022-11-10T05:52:35;95750.81;;;7.32;68.80
61292;BME280;47165;42.664;23.368;2022-11-10T05:55:03;95752.44;;;7.35;69.14
61292;BME280;47165;42.664;23.368;2022-11-10T05:57:29;95750.69;;;7.35;68.93
61292;BME280;47165;42.664;23.368;2022-11-10T05:59:55;95754.72;;;7.44;69.44
61292;BME280;47165;42.664;23.368;2022-11-10T06:02:20;95757.13;;;7.50;69.37
61292;BME280;47165;42.664;23.368;2022-11-10T06:04:45;95753.47;;;7.56;69.45
61292;BME280;47165;42.664;23.368;2022-11-10T06:07:11;95759.28;;;7.64;69.42
61292;BME280;47165;42.664;23.368;2022-11-10T06:09:36;95756.47;;;7.70;69.65
61292;BME280;47165;42.664;23.368;2022-11-10T06:12:02;95761.38;;;7.79;69.31
61292;BME280;47165;42.664;23.368;2022-11-10T06:14:28;95759.47;;;7.84;68.63
61292;BME280;47165;42.664;23.368;2022-11-10T06:16:53;95768.75;;;7.92;69.13
61292;BME280;47165;42.664;23.368;2022-11-10T06:19:20;95772.84;;;7.99;69.04
61292;BME280;47165;42.664;23.368;2022-11-10T06:21:45;95778.66;;;8.05;68.42
61292;BME280;47165;42.664;23.368;2022-11-10T06:24:11;95778.63;;;8.07;67.95
61292;BME280;47165;42.664;23.368;2022-11-10T06:26:36;95779.41;;;8.09;67.51
61292;BME280;47165;42.664;23.368;2022-11-10T06:29:02;95783.59;;;8.13;67.69
61292;BME280;47165;42.664;23.368;2022-11-10T06:31:27;95791.19;;;8.19;67.77
61292;BME280;47165;42.664;23.368;2022-11-10T06:33:53;95792.78;;;8.23;67.41
61292;BME280;47165;42.664;23.368;2022-11-10T06:36:20;95802.94;;;8.31;67.95
61292;BME280;47165;42.664;23.368;2022-11-10T06:38:45;95800.00;;;8.40;68.10
61292;BME280;47165;42.664;23.368;2022-11-10T06:41:10;95803.28;;;8.47;68.45
61292;BME280;47165;42.664;23.368;2022-11-10T06:43:36;95801.25;;;8.55;68.83
61292;BME280;47165;42.664;23.368;2022-11-10T06:46:01;95810.53;;;8.62;69.58
61292;BME280;47165;42.664;23.368;2022-11-10T06:48:27;95805.09;;;8.69;69.26
61292;BME280;47165;42.664;23.368;2022-11-10T06:50:52;95807.69;;;8.69;69.74
61292;BME280;47165;42.664;23.368;2022-11-10T06:53:17;95807.44;;;8.76;70.33
61292;BME280;47165;42.664;23.368;2022-11-10T06:55:43;95814.97;;;8.84;70.18
61292;BME280;47165;42.664;23.368;2022-11-10T06:58:09;95809.53;;;8.90;69.91
61292;BME280;47165;42.664;23.368;2022-11-10T07:00:35;95816.31;;;8.94;70.14
61292;BME280;47165;42.664;23.368;2022-11-10T07:03:03;95819.47;;;9.02;70.97
61292;BME280;47165;42.664;23.368;2022-11-10T07:05:30;95812.31;;;9.07;70.80
61292;BME280;47165;42.664;23.368;2022-11-10T07:08:01;95818.47;;;8.83;73.45
61292;BME280;47165;42.664;23.368;2022-11-10T07:10:26;95817.66;;;9.04;73.09
61292;BME280;47165;42.664;23.368;2022-11-10T07:12:59;95815.38;;;9.19;72.69
61292;BME280;47165;42.664;23.368;2022-11-10T07:15:24;95813.38;;;9.25;72.49
61292;BME280;47165;42.664;23.368;2022-11-10T07:17:51;95816.59;;;9.32;72.26
61292;BME280;47165;42.664;23.368;2022-11-10T07:20:16;95820.69;;;9.39;72.20
61292;BME280;47165;42.664;23.368;2022-11-10T07:22:42;95813.09;;;9.33;72.64
61292;BME280;47165;42.664;23.368;2022-11-10T07:25:07;95820.22;;;9.28;73.04
61292;BME280;47165;42.664;23.368;2022-11-10T07:27:33;95816.50;;;9.35;72.89
61292;BME280;47165;42.664;23.368;2022-11-10T07:29:58;95823.53;;;9.33;73.01
61292;BME280;47165;42.664;23.368;2022-11-10T07:32:24;95826.19;;;9.32;73.36
61292;BME280;47165;42.664;23.368;2022-11-10T07:38:12;95827.31;;;9.46;73.17
61292;BME280;47165;42.664;23.368;2022-11-10T07:40:38;95825.28;;;9.55;72.89
61292;BME280;47165;42.664;23.368;2022-11-10T07:43:04;95828.13;;;9.49;73.18
61292;BME280;47165;42.664;23.368;2022-11-10T07:45:31;95823.44;;;9.57;72.82
61292;BME280;47165;42.664;23.368;2022-11-10T07:48:01;95819.75;;;9.62;72.66
61292;BME280;47165;42.664;23.368;2022-11-10T07:50:27;95819.56;;;9.67;72.38
61292;BME280;47165;42.664;23.368;2022-11-10T07:55:32;95817.31;;;9.80;71.96
61292;BME280;47165;42.664;23.368;2022-11-10T07:57:58;95820.44;;;9.88;71.59
61292;BME280;47165;42.664;23.368;2022-11-10T08:00:24;95815.13;;;9.91;71.50
61292;BME280;47165;42.664;23.368;2022-11-10T08:02:49;95815.69;;;9.98;71.36
61292;BME280;47165;42.664;23.368;2022-11-10T08:05:16;95818.84;;;10.06;71.17
61292;BME280;47165;42.664;23.368;2022-11-10T08:07:42;95818.59;;;10.12;71.08
61292;BME280;47165;42.664;23.368;2022-11-10T08:10:08;95818.47;;;9.95;71.55
61292;BME280;47165;42.664;23.368;2022-11-10T08:12:34;95811.78;;;9.87;71.55
61292;BME280;47165;42.664;23.368;2022-11-10T08:14:59;95818.19;;;10.01;71.08
61292;BME280;47165;42.664;23.368;2022-11-10T08:17:25;95819.38;;;10.14;70.60
61292;BME280;47165;42.664;23.368;2022-11-10T08:19:50;95811.16;;;10.23;70.24
61292;BME280;47165;42.664;23.368;2022-11-10T08:22:16;95813.94;;;10.19;69.86
61292;BME280;47165;42.664;23.368;2022-11-10T08:24:41;95811.81;;;10.28;69.58
61292;BME280;47165;42.664;23.368;2022-11-10T08:27:07;95826.19;;;10.39;69.40
61292;BME280;47165;42.664;23.368;2022-11-10T08:29:32;95828.47;;;10.46;69.03
61292;BME280;47165;42.664;23.368;2022-11-10T08:31:58;95816.78;;;10.55;69.01
61292;BME280;47165;42.664;23.368;2022-11-10T08:34:23;95821.88;;;10.58;68.88
61292;BME280;47165;42.664;23.368;2022-11-10T08:36:51;95825.94;;;10.45;68.83
61292;BME280;47165;42.664;23.368;2022-11-10T08:39:17;95826.84;;;10.44;69.09
61292;BME280;47165;42.664;23.368;2022-11-10T08:41:42;95830.50;;;10.60;68.77
61292;BME280;47165;42.664;23.368;2022-11-10T08:44:07;95822.31;;;10.68;68.19
61292;BME280;47165;42.664;23.368;2022-11-10T08:46:33;95828.03;;;10.76;68.25
61292;BME280;47165;42.664;23.368;2022-11-10T08:48:58;95823.53;;;10.80;68.03
61292;BME280;47165;42.664;23.368;2022-11-10T08:51:24;95825.59;;;10.92;67.60
61292;BME280;47165;42.664;23.368;2022-11-10T08:53:49;95827.72;;;11.03;67.60
61292;BME280;47165;42.664;23.368;2022-11-10T08:56:15;95826.31;;;10.96;67.61
61292;BME280;47165;42.664;23.368;2022-11-10T08:58:40;95831.81;;;11.08;67.40
61292;BME280;47165;42.664;23.368;2022-11-10T09:01:10;95838.19;;;11.22;67.26
61292;BME280;47165;42.664;23.368;2022-11-10T09:03:36;95835.44;;;11.25;67.45
61292;BME280;47165;42.664;23.368;2022-11-10T09:06:02;95828.78;;;11.37;67.28
61292;BME280;47165;42.664;23.368;2022-11-10T09:08:28;95829.22;;;11.46;67.19
61292;BME280;47165;42.664;23.368;2022-11-10T09:10:54;95831.81;;;11.46;67.06
61292;BME280;47165;42.664;23.368;2022-11-10T09:13:20;95828.03;;;11.52;66.72
61292;BME280;47165;42.664;23.368;2022-11-10T09:15:46;95823.69;;;11.53;66.76
61292;BME280;47165;42.664;23.368;2022-11-10T09:18:13;95833.63;;;11.63;66.63
61292;BME280;47165;42.664;23.368;2022-11-10T09:20:40;95833.88;;;11.76;66.67
61292;BME280;47165;42.664;23.368;2022-11-10T09:23:14;95829.06;;;11.86;66.61
61292;BME280;47165;42.664;23.368;2022-11-10T09:25:41;95829.50;;;11.96;66.08
61292;BME280;47165;42.664;23.368;2022-11-10T09:28:11;95823.09;;;12.01;65.83
61292;BME280;47165;42.664;23.368;2022-11-10T09:30:38;95822.72;;;11.92;66.23
61292;BME280;47165;42.664;23.368;2022-11-10T09:33:03;95817.78;;;12.03;66.25
61292;BME280;47165;42.664;23.368;2022-11-10T09:38:50;95814.41;;;12.18;65.58
61292;BME280;47165;42.664;23.368;2022-11-10T09:41:16;95816.56;;;12.27;65.63
61292;BME280;47165;42.664;23.368;2022-11-10T09:44:01;95813.06;;;12.44;65.14
61292;BME280;47165;42.664;23.368;2022-11-10T09:46:33;95812.78;;;12.33;65.42
61292;BME280;47165;42.664;23.368;2022-11-10T09:51:41;95810.56;;;12.43;64.88
61292;BME280;47165;42.664;23.368;2022-11-10T09:54:36;95811.03;;;12.67;64.76
61292;BME280;47165;42.664;23.368;2022-11-10T09:57:05;95800.28;;;12.89;64.52
61292;BME280;47165;42.664;23.368;2022-11-10T09:59:33;95796.34;;;13.14;64.41
61292;BME280;47165;42.664;23.368;2022-11-10T10:02:03;95796.44;;;13.28;63.28
61292;BME280;47165;42.664;23.368;2022-11-10T10:04:44;95802.72;;;13.57;63.05
61292;BME280;47165;42.664;23.368;2022-11-10T10:07:28;95792.31;;;13.56;61.21
61292;BME280;47165;42.664;23.368;2022-11-10T10:10:19;95795.94;;;13.53;60.66
61292;BME280;47165;42.664;23.368;2022-11-10T10:13:03;95797.28;;;13.76;60.35
61292;BME280;47165;42.664;23.368;2022-11-10T10:15:43;95790.72;;;13.99;60.39
61292;BME280;47165;42.664;23.368;2022-11-10T10:23:52;95783.00;;;14.85;58.54
61292;BME280;47165;42.664;23.368;2022-11-10T10:26:22;95783.16;;;15.11;57.69
61292;BME280;47165;42.664;23.368;2022-11-10T10:28:49;95779.91;;;15.07;57.25
61292;BME280;47165;42.664;23.368;2022-11-10T10:31:27;95780.31;;;15.43;57.18
61292;BME280;47165;42.664;23.368;2022-11-10T10:33:54;95790.00;;;15.69;56.24
61292;BME280;47165;42.664;23.368;2022-11-10T10:36:24;95781.81;;;15.74;54.32
61292;BME280;47165;42.664;23.368;2022-11-10T10:39:18;95775.84;;;16.12;53.91
61292;BME280;47165;42.664;23.368;2022-11-10T10:41:48;95777.34;;;16.42;53.08
61292;BME280;47165;42.664;23.368;2022-11-10T10:44:16;95781.91;;;16.78;52.57
61292;BME280;47165;42.664;23.368;2022-11-10T10:51:38;95766.78;;;17.32;48.69
61292;BME280;47165;42.664;23.368;2022-11-10T10:54:04;95759.66;;;16.95;48.59
61292;BME280;47165;42.664;23.368;2022-11-10T10:56:32;95761.16;;;17.36;48.19
61292;BME280;47165;42.664;23.368;2022-11-10T10:59:03;95756.16;;;17.44;48.45
61292;BME280;47165;42.664;23.368;2022-11-10T11:01:32;95758.59;;;17.84;48.46
61292;BME280;47165;42.664;23.368;2022-11-10T11:03:59;95754.38;;;18.17;46.83
61292;BME280;47165;42.664;23.368;2022-11-10T11:06:29;95746.44;;;18.17;45.79
61292;BME280;47165;42.664;23.368;2022-11-10T11:11:35;95741.44;;;18.25;45.92
61292;BME280;47165;42.664;23.368;2022-11-10T11:14:22;95735.84;;;18.64;45.77
61292;BME280;47165;42.664;23.368;2022-11-10T11:19:15;95734.50;;;18.47;44.01
61292;BME280;47165;42.664;23.368;2022-11-10T11:24:38;95730.13;;;19.04;44.93
61292;BME280;47165;42.664;23.368;2022-11-10T11:27:23;95731.41;;;19.32;43.95
61292;BME280;47165;42.664;23.368;2022-11-10T11:30:19;95723.53;;;19.53;42.29
61292;BME280;47165;42.664;23.368;2022-11-10T11:35:49;95713.88;;;19.63;41.27
61292;BME280;47165;42.664;23.368;2022-11-10T11:38:30;95715.66;;;19.74;41.18
61292;BME280;47165;42.664;23.368;2022-11-10T11:41:03;95712.09;;;19.53;41.18
61292;BME280;47165;42.664;23.368;2022-11-10T11:52:27;95700.53;;;20.39;41.16
61292;BME280;47165;42.664;23.368;2022-11-10T12:00:23;95709.91;;;21.36;38.86
61292;BME280;47165;42.664;23.368;2022-11-10T12:08:38;95707.25;;;21.36;37.78
61292;BME280;47165;42.664;23.368;2022-11-10T12:11:19;95700.16;;;21.46;37.73
61292;BME280;47165;42.664;23.368;2022-11-10T12:14:05;95705.78;;;21.62;37.36
61292;BME280;47165;42.664;23.368;2022-11-10T12:16:37;95703.84;;;21.94;36.86
61292;BME280;47165;42.664;23.368;2022-11-10T12:29:58;95707.06;;;21.87;35.96
61292;BME280;47165;42.664;23.368;2022-11-10T12:32:33;95708.59;;;22.00;36.06
61292;BME280;47165;42.664;23.368;2022-11-10T12:35:06;95696.56;;;22.15;35.66
61292;BME280;47165;42.664;23.368;2022-11-10T12:38:13;95704.41;;;22.36;35.83
61292;BME280;47165;42.664;23.368;2022-11-10T12:40:48;95705.75;;;22.60;35.92
61292;BME280;47165;42.664;23.368;2022-11-10T12:43:25;95705.16;;;22.76;35.08
61292;BME280;47165;42.664;23.368;2022-11-10T12:45:57;95703.72;;;22.81;34.59
61292;BME280;47165;42.664;23.368;2022-11-10T12:48:29;95700.72;;;22.94;34.63
61292;BME280;47165;42.664;23.368;2022-11-10T12:51:06;95707.31;;;23.09;34.43
61292;BME280;47165;42.664;23.368;2022-11-10T12:53:35;95707.22;;;23.19;34.16
61292;BME280;47165;42.664;23.368;2022-11-10T12:56:07;95713.53;;;23.46;33.71
61292;BME280;47165;42.664;23.368;2022-11-10T12:58:36;95708.94;;;23.66;34.25
61292;BME280;47165;42.664;23.368;2022-11-10T13:01:20;95697.09;;;23.78;33.35
61292;BME280;47165;42.664;23.368;2022-11-10T13:03:59;95701.53;;;23.87;33.17
61292;BME280;47165;42.664;23.368;2022-11-10T13:06:30;95693.81;;;24.02;32.61
61292;BME280;47165;42.664;23.368;2022-11-10T13:08:57;95710.72;;;24.11;32.08
61292;BME280;47165;42.664;23.368;2022-11-10T13:11:25;95712.88;;;24.07;32.29
61292;BME280;47165;42.664;23.368;2022-11-10T13:14:03;95716.22;;;24.09;32.28
61292;BME280;47165;42.664;23.368;2022-11-10T13:19:07;95713.88;;;24.24;32.49
61292;BME280;47165;42.664;23.368;2022-11-10T13:26:56;95708.19;;;24.45;31.54
61292;BME280;47165;42.664;23.368;2022-11-10T13:38:01;95713.19;;;24.04;32.08
61292;BME280;47165;42.664;23.368;2022-11-10T13:40:29;95714.84;;;24.05;32.14
61292;BME280;47165;42.664;23.368;2022-11-10T13:45:41;95713.19;;;23.86;32.23
61292;BME280;47165;42.664;23.368;2022-11-10T13:51:24;95725.13;;;23.82;32.01
61292;BME280;47165;42.664;23.368;2022-11-10T13:56:45;95714.66;;;23.71;32.74
61292;BME280;47165;42.664;23.368;2022-11-10T13:59:20;95712.00;;;23.71;32.23
61292;BME280;47165;42.664;23.368;2022-11-10T14:01:47;95723.41;;;23.63;32.43
61292;BME280;47165;42.664;23.368;2022-11-10T14:04:35;95730.59;;;23.63;32.33
61292;BME280;47165;42.664;23.368;2022-11-10T14:07:04;95724.75;;;23.49;32.41
61292;BME280;47165;42.664;23.368;2022-11-10T14:09:38;95724.88;;;23.30;33.01
61292;BME280;47165;42.664;23.368;2022-11-10T14:12:18;95725.63;;;23.13;33.18
61292;BME280;47165;42.664;23.368;2022-11-10T14:15:13;95727.38;;;22.94;33.14
61292;BME280;47165;42.664;23.368;2022-11-10T14:17:53;95732.47;;;22.78;33.46
61292;BME280;47165;42.664;23.368;2022-11-10T14:20:23;95721.44;;;22.63;33.74
61292;BME280;47165;42.664;23.368;2022-11-10T14:22:51;95733.38;;;22.49;33.87
61292;BME280;47165;42.664;23.368;2022-11-10T14:25:32;95728.22;;;22.38;34.26
61292;BME280;47165;42.664;23.368;2022-11-10T14:28:03;95732.25;;;22.22;34.55
61292;BME280;47165;42.664;23.368;2022-11-10T14:30:49;95732.66;;;21.98;35.01
61292;BME280;47165;42.664;23.368;2022-11-10T14:33:15;95739.63;;;21.60;35.16
61292;BME280;47165;42.664;23.368;2022-11-10T14:35:47;95728.50;;;21.36;35.88
61292;BME280;47165;42.664;23.368;2022-11-10T14:38:24;95739.03;;;21.06;36.32
61292;BME280;47165;42.664;23.368;2022-11-10T14:40:56;95735.66;;;20.74;36.93
61292;BME280;47165;42.664;23.368;2022-11-10T14:43:30;95738.56;;;20.49;37.44
61292;BME280;47165;42.664;23.368;2022-11-10T14:45:57;95741.16;;;20.19;38.18